Time,TemperatureF,DewpointF,PressureIn,WindDirection,WindDirectionDegrees,WindSpeedMPH,WindSpeedGustMPH,Humidity,HourlyPrecipIn,Conditions,Clouds,dailyrainin,SoftwareType,DateUTC
2013-04-09 00:00:00,47.5,46.3,29.95,WNW,297,0.0,9.4,96,0.00,,,0.00,WUHU216PEETBRO,2013-04-09 04:00:00,
2013-04-09 00:05:00,47.4,46.2,29.96,NW,309,0.0,11.1,96,0.00,,,0.00,WUHU216PEETBRO,2013-04-09 04:05:00,
2013-04-09 00:10:00,47.1,46.1,29.96,WNW,285,5.3,11.1,96,0.00,,,0.00,WUHU216PEETBRO,2013-04-09 04:10:00,
2013-04-09 00:15:00,46.9,46.1,29.96,NNW,338,1.2,14.7,97,0.00,,,0.00,WUHU216PEETBRO,2013-04-09 04:15:00,
2013-04-09 00:20:00,46.8,46.1,29.96,West,272,0.0,14.7,98,0.00,,,0.00,WUHU216PEETBRO,2013-04-09 04:20:00,
2013-04-09 00:25:00,46.6,46.0,29.96,WNW,285,3.0,10.6,98,0.00,,,0.00,WUHU216PEETBRO,2013-04-09 04:25:00,
2013-04-09 00:30:00,46.4,46.0,29.97,North,11,4.8,12.6,99,0.00,,,0.00,WUHU216PEETBRO,2013-04-09 04:30:00,
2013-04-09 00:35:00,46.3,46.0,29.97,West,272,3.4,12.6,99,0.00,,,0.00,WUHU216PEETBRO,2013-04-09 04:35:00,
2013-04-09 00:40:00,46.2,45.9,29.98,NW,314,3.2,9.4,99,0.00,,,0.00,WUHU216PEETBRO,2013-04-09 04:40:00,
2013-04-09 00:45:00,46.1,45.9,29.98,WNW,299,0.0,7.6,99,0.00,,,0.00,WUHU216PEETBRO,2013-04-09 04:45:00,
2013-04-09 00:50:00,46.0,46.0,29.98,North,359,0.0,7.8,100,0.00,,,0.00,WUHU216PEETBRO,2013-04-09 04:50:00,
2013-04-09 00:55:00,46.0,46.0,29.98,West,280,2.9,7.8,100,0.00,,,0.00,WUHU216PEETBRO,2013-04-09 04:55:00,
2013-04-09 01:00:00,45.7,45.1,29.98,North,2,9.9,12.3,98,0.00,,,0.00,WUHU216PEETBRO,2013-04-09 05:00:00,
2013-04-09 01:05:00,45.5,44.7,29.99,WNW,299,6.2,12.3,97,0.00,,,0.00,WUHU216PEETBRO,2013-04-09 05:05:00,
2013-04-09 01:10:00,45.1,44.4,29.99,NNW,334,4.7,9.3,98,0.00,,,0.00,WUHU216PEETBRO,2013-04-09 05:10:00,
2013-04-09 01:15:00,44.8,44.2,29.99,North,8,3.0,9.6,98,0.00,,,0.00,WUHU216PEETBRO,2013-04-09 05:15:00,
2013-04-09 01:20:00,44.5,43.9,30.00,West,273,4.2,9.6,98,0.00,,,0.00,WUHU216PEETBRO,2013-04-09 05:20:00,
2013-04-09 01:25:00,44.4,44.0,30.01,North,5,0.0,8.3,99,0.00,,,0.00,WUHU216PEETBRO,2013-04-09 05:25:00,
2013-04-09 01:30:00,44.2,43.9,30.01,North,359,4.1,8.8,99,0.00,,,0.00,WUHU216PEETBRO,2013-04-09 05:30:00,
2013-04-09 01:35:00,43.8,43.4,30.02,North,358,4.5,10.6,99,0.00,,,0.00,WUHU216PEETBRO,2013-04-09 05:35:00,
2013-04-09 01:40:00,43.7,43.4,30.02,NNW,333,0.0,10.6,99,0.00,,,0.00,WUHU216PEETBRO,2013-04-09 05:40:00,
2013-04-09 01:45:00,43.2,43.0,30.03,NNW,335,3.5,10.6,99,0.00,,,0.00,WUHU216PEETBRO,2013-04-09 05:45:00,
2013-04-09 01:50:00,43.2,43.1,30.03,NNW,333,0.0,10.6,100,0.00,,,0.00,WUHU216PEETBRO,2013-04-09 05:50:00,
2013-04-09 01:55:00,43.0,42.9,30.04,NNE,15,0.0,10.2,100,0.00,,,0.00,WUHU216PEETBRO,2013-04-09 05:55:00,
2013-04-09 02:00:00,43.0,42.9,30.04,West,279,0.0,10.2,100,0.00,,,0.00,WUHU216PEETBRO,2013-04-09 06:00:00,
2013-04-09 02:05:00,42.9,42.8,30.04,NNE,29,0.0,10.3,100,0.00,,,0.00,WUHU216PEETBRO,2013-04-09 06:05:00,
2013-04-09 02:10:00,42.9,42.9,30.04,North,11,0.0,10.3,100,0.00,,,0.00,WUHU216PEETBRO,2013-04-09 06:10:00,
2013-04-09 02:15:00,42.8,42.8,30.04,NNE,16,5.3,8.4,100,0.00,,,0.00,WUHU216PEETBRO,2013-04-09 06:15:00,
2013-04-09 02:20:00,42.8,42.8,30.04,NNE,26,0.0,8.4,100,0.00,,,0.00,WUHU216PEETBRO,2013-04-09 06:20:00,
2013-04-09 02:25:00,42.7,42.7,30.04,West,273,2.7,8.0,100,0.00,,,0.00,WUHU216PEETBRO,2013-04-09 06:25:00,
2013-04-09 02:30:00,42.7,42.7,30.04,West,273,0.0,8.0,100,0.00,,,0.00,WUHU216PEETBRO,2013-04-09 06:30:00,
2013-04-09 02:35:00,42.6,42.6,30.04,NW,321,0.0,7.2,100,0.00,,,0.00,WUHU216PEETBRO,2013-04-09 06:35:00,
2013-04-09 02:40:00,42.7,42.7,30.04,North,354,0.0,7.2,100,0.00,,,0.00,WUHU216PEETBRO,2013-04-09 06:40:00,
2013-04-09 02:45:00,42.6,42.6,30.04,North,359,3.0,5.9,100,0.00,,,0.00,WUHU216PEETBRO,2013-04-09 06:45:00,
2013-04-09 02:50:00,42.6,42.6,30.05,North,355,0.0,5.9,100,0.00,,,0.00,WUHU216PEETBRO,2013-04-09 06:50:00,
2013-04-09 02:55:00,42.5,42.5,30.05,North,2,0.0,6.5,100,0.00,,,0.00,WUHU216PEETBRO,2013-04-09 06:55:00,
2013-04-09 03:00:00,42.4,42.4,30.05,NNW,341,4.2,7.5,100,0.00,,,0.00,WUHU216PEETBRO,2013-04-09 07:00:00,
2013-04-09 03:05:00,42.1,42.1,30.05,North,4,0.0,7.5,100,0.00,,,0.00,WUHU216PEETBRO,2013-04-09 07:05:00,
2013-04-09 03:10:00,42.0,42.0,30.05,NNW,331,0.0,7.0,100,0.00,,,0.00,WUHU216PEETBRO,2013-04-09 07:10:00,
2013-04-09 03:15:00,41.8,41.8,30.05,NNE,12,6.8,9.6,100,0.00,,,0.00,WUHU216PEETBRO,2013-04-09 07:15:00,
2013-04-09 03:20:00,41.7,41.7,30.05,North,7,4.1,9.6,100,0.00,,,0.00,WUHU216PEETBRO,2013-04-09 07:20:00,
2013-04-09 03:25:00,41.6,41.6,30.05,North,8,2.2,9.5,100,0.00,,,0.00,WUHU216PEETBRO,2013-04-09 07:25:00,
2013-04-09 03:30:00,41.4,41.4,30.04,North,11,0.0,9.5,100,0.00,,,0.00,WUHU216PEETBRO,2013-04-09 07:30:00,
2013-04-09 03:35:00,41.3,41.3,30.04,North,2,0.0,7.2,100,0.00,,,0.00,WUHU216PEETBRO,2013-04-09 07:35:00,
2013-04-09 03:40:00,41.1,41.1,30.04,North,4,0.0,7.3,100,0.00,,,0.00,WUHU216PEETBRO,2013-04-09 07:40:00,
2013-04-09 03:45:00,40.9,40.9,30.04,NNW,348,4.2,8.4,100,0.00,,,0.00,WUHU216PEETBRO,2013-04-09 07:45:00,
2013-04-09 03:50:00,40.9,40.9,30.04,NNE,14,6.8,8.4,100,0.00,,,0.00,WUHU216PEETBRO,2013-04-09 07:50:00,
2013-04-09 03:55:00,40.8,40.8,30.04,North,0,0.0,7.8,100,0.00,,,0.00,WUHU216PEETBRO,2013-04-09 07:55:00,
2013-04-09 04:01:00,40.6,40.6,30.04,NNW,348,0.0,7.8,100,0.00,,,0.00,WUHU216PEETBRO,2013-04-09 08:01:00,
2013-04-09 04:06:00,40.5,40.5,30.04,NNE,12,0.0,5.1,100,0.00,,,0.00,WUHU216PEETBRO,2013-04-09 08:06:00,
2013-04-09 04:11:00,40.3,40.3,30.04,NNE,12,0.0,5.1,100,0.00,,,0.00,WUHU216PEETBRO,2013-04-09 08:11:00,
2013-04-09 04:16:00,40.3,40.3,30.04,NNE,12,0.0,0.0,100,0.00,,,0.00,WUHU216PEETBRO,2013-04-09 08:16:00,
2013-04-09 04:21:00,40.1,40.1,30.05,NNE,12,0.0,0.0,100,0.00,,,0.00,WUHU216PEETBRO,2013-04-09 08:21:00,
2013-04-09 04:26:00,40.0,40.0,30.05,NNE,12,0.0,0.0,100,0.00,,,0.00,WUHU216PEETBRO,2013-04-09 08:26:00,
2013-04-09 04:31:00,39.9,39.9,30.06,North,7,4.7,4.7,100,0.00,,,0.00,WUHU216PEETBRO,2013-04-09 08:31:00,
2013-04-09 04:36:00,40.0,40.0,30.06,NNE,12,0.0,4.7,100,0.00,,,0.00,WUHU216PEETBRO,2013-04-09 08:36:00,
2013-04-09 04:41:00,40.1,40.1,30.06,NNE,12,0.0,2.9,100,0.00,,,0.00,WUHU216PEETBRO,2013-04-09 08:41:00,
2013-04-09 04:46:00,40.2,40.2,30.06,NNE,15,0.0,5.4,100,0.00,,,0.00,WUHU216PEETBRO,2013-04-09 08:46:00,
2013-04-09 04:51:00,40.3,40.3,30.07,NNE,15,0.0,5.4,100,0.00,,,0.00,WUHU216PEETBRO,2013-04-09 08:51:00,
2013-04-09 04:56:00,40.4,40.4,30.07,NE,49,0.0,6.5,100,0.00,,,0.00,WUHU216PEETBRO,2013-04-09 08:56:00,
2013-04-09 05:01:00,40.5,40.5,30.07,NNE,12,0.0,6.5,100,0.00,,,0.00,WUHU216PEETBRO,2013-04-09 09:01:00,
2013-04-09 05:06:00,40.5,40.5,30.07,NNE,12,0.0,4.3,100,0.00,,,0.00,WUHU216PEETBRO,2013-04-09 09:06:00,
2013-04-09 05:12:00,40.5,40.5,30.06,NNE,12,0.0,0.0,100,0.00,,,0.00,WUHU216PEETBRO,2013-04-09 09:12:00,
2013-04-09 05:17:00,40.4,40.4,30.06,NNE,12,0.0,1.3,100,0.00,,,0.00,WUHU216PEETBRO,2013-04-09 09:17:00,
2013-04-09 05:22:00,40.2,40.2,30.06,NNE,16,3.0,6.9,100,0.00,,,0.00,WUHU216PEETBRO,2013-04-09 09:22:00,
2013-04-09 05:27:00,40.3,40.3,30.07,NNE,16,0.0,6.9,100,0.00,,,0.00,WUHU216PEETBRO,2013-04-09 09:27:00,
2013-04-09 05:32:00,40.3,40.3,30.07,NE,35,0.0,2.9,100,0.00,,,0.00,WUHU216PEETBRO,2013-04-09 09:32:00,
2013-04-09 05:37:00,40.2,40.2,30.07,NE,47,0.0,5.7,100,0.00,,,0.00,WUHU216PEETBRO,2013-04-09 09:37:00,
2013-04-09 05:42:00,40.1,40.1,30.07,North,8,0.0,6.0,100,0.00,,,0.00,WUHU216PEETBRO,2013-04-09 09:42:00,
2013-04-09 05:47:00,40.1,40.1,30.07,North,8,0.0,6.0,100,0.00,,,0.00,WUHU216PEETBRO,2013-04-09 09:47:00,
2013-04-09 05:52:00,40.1,40.1,30.08,North,8,0.0,0.0,100,0.00,,,0.00,WUHU216PEETBRO,2013-04-09 09:52:00,
2013-04-09 05:57:00,40.1,40.1,30.08,North,8,0.0,0.0,100,0.00,,,0.00,WUHU216PEETBRO,2013-04-09 09:57:00,
2013-04-09 06:02:00,40.1,40.1,30.09,North,8,0.0,0.0,100,0.00,,,0.00,WUHU216PEETBRO,2013-04-09 10:02:00,
2013-04-09 06:07:00,40.1,40.1,30.09,NNE,16,0.0,5.5,100,0.00,,,0.00,WUHU216PEETBRO,2013-04-09 10:07:00,
2013-04-09 06:12:00,40.0,40.0,30.09,NNE,16,0.0,5.5,100,0.00,,,0.00,WUHU216PEETBRO,2013-04-09 10:12:00,
2013-04-09 06:17:00,40.1,40.1,30.10,NNE,16,0.0,0.0,100,0.00,,,0.00,WUHU216PEETBRO,2013-04-09 10:17:00,
2013-04-09 06:22:00,40.1,40.1,30.10,NNE,16,0.0,0.0,100,0.00,,,0.00,WUHU216PEETBRO,2013-04-09 10:22:00,
2013-04-09 06:27:00,40.1,40.1,30.10,NNE,16,0.0,0.0,100,0.00,,,0.00,WUHU216PEETBRO,2013-04-09 10:27:00,
2013-04-09 06:32:00,40.1,40.1,30.11,NNE,16,0.0,0.0,100,0.00,,,0.00,WUHU216PEETBRO,2013-04-09 10:32:00,
2013-04-09 06:37:00,40.1,40.1,30.11,NNE,16,0.0,0.0,100,0.00,,,0.00,WUHU216PEETBRO,2013-04-09 10:37:00,
2013-04-09 06:42:00,40.1,40.1,30.11,NNE,16,0.0,0.0,100,0.00,,,0.00,WUHU216PEETBRO,2013-04-09 10:42:00,
2013-04-09 06:47:00,40.0,40.0,30.11,NNE,16,0.0,0.0,100,0.00,,,0.00,WUHU216PEETBRO,2013-04-09 10:47:00,
2013-04-09 06:52:00,40.0,40.0,30.11,NNE,16,0.0,0.0,100,0.00,,,0.00,WUHU216PEETBRO,2013-04-09 10:52:00,
2013-04-09 06:57:00,40.0,40.0,30.11,NNE,16,0.0,0.0,100,0.00,,,0.00,WUHU216PEETBRO,2013-04-09 10:57:00,
2013-04-09 07:02:00,40.0,40.0,30.11,NNE,16,0.0,0.0,100,0.00,,,0.00,WUHU216PEETBRO,2013-04-09 11:02:00,
2013-04-09 07:07:00,40.0,40.0,30.11,NNE,16,0.0,0.0,100,0.00,,,0.00,WUHU216PEETBRO,2013-04-09 11:07:00,
2013-04-09 07:12:00,40.0,40.0,30.11,NNE,16,0.0,0.0,100,0.00,,,0.00,WUHU216PEETBRO,2013-04-09 11:12:00,
2013-04-09 07:17:00,39.9,39.9,30.11,NNE,16,0.0,0.0,100,0.00,,,0.00,WUHU216PEETBRO,2013-04-09 11:17:00,
2013-04-09 07:22:00,40.0,40.0,30.11,NNE,16,0.0,0.0,100,0.00,,,0.00,WUHU216PEETBRO,2013-04-09 11:22:00,
2013-04-09 07:27:00,39.9,39.9,30.11,NNE,16,0.0,0.0,100,0.00,,,0.00,WUHU216PEETBRO,2013-04-09 11:27:00,
2013-04-09 07:32:00,40.0,40.0,30.11,NNE,16,0.0,0.0,100,0.00,,,0.00,WUHU216PEETBRO,2013-04-09 11:32:00,
2013-04-09 07:37:00,40.0,40.0,30.11,NNE,16,0.0,0.0,100,0.00,,,0.00,WUHU216PEETBRO,2013-04-09 11:37:00,
2013-04-09 07:42:00,40.0,40.0,30.11,NNE,16,0.0,0.0,100,0.00,,,0.00,WUHU216PEETBRO,2013-04-09 11:42:00,
2013-04-09 07:47:00,40.1,40.1,30.11,NNE,16,0.0,0.0,100,0.00,,,0.00,WUHU216PEETBRO,2013-04-09 11:47:00,
2013-04-09 07:52:00,40.0,40.0,30.11,NNE,16,0.0,0.0,100,0.00,,,0.00,WUHU216PEETBRO,2013-04-09 11:52:00,
2013-04-09 07:57:00,40.1,40.1,30.11,NNE,16,0.0,0.0,100,0.00,,,0.00,WUHU216PEETBRO,2013-04-09 11:57:00,
2013-04-09 08:02:00,40.1,40.1,30.11,NNE,16,0.0,0.0,100,0.00,,,0.00,WUHU216PEETBRO,2013-04-09 12:02:00,
2013-04-09 08:07:00,40.1,40.1,30.11,East,86,0.0,4.9,100,0.00,,,0.00,WUHU216PEETBRO,2013-04-09 12:07:00,
2013-04-09 08:12:00,40.1,40.1,30.11,East,86,0.0,4.9,100,0.00,,,0.00,WUHU216PEETBRO,2013-04-09 12:12:00,
2013-04-09 08:17:00,40.0,40.0,30.11,East,86,0.0,0.0,100,0.00,,,0.00,WUHU216PEETBRO,2013-04-09 12:17:00,
2013-04-09 08:22:00,40.0,40.0,30.11,East,90,0.0,4.4,100,0.00,,,0.00,WUHU216PEETBRO,2013-04-09 12:22:00,
2013-04-09 08:27:00,39.7,39.7,30.11,East,90,0.0,6.5,100,0.00,,,0.00,WUHU216PEETBRO,2013-04-09 12:27:00,
2013-04-09 08:32:00,39.8,39.8,30.11,SSE,149,0.0,6.5,100,0.00,,,0.00,WUHU216PEETBRO,2013-04-09 12:32:00,
2013-04-09 08:37:00,39.7,39.7,30.11,East,93,4.5,6.8,100,0.00,,,0.00,WUHU216PEETBRO,2013-04-09 12:37:00,
2013-04-09 08:42:00,39.7,39.7,30.11,East,95,0.0,6.8,100,0.00,,,0.00,WUHU216PEETBRO,2013-04-09 12:42:00,
2013-04-09 08:47:00,39.8,39.8,30.11,East,95,0.0,4.3,100,0.00,,,0.00,WUHU216PEETBRO,2013-04-09 12:47:00,
2013-04-09 08:52:00,40.0,40.0,30.11,ENE,76,0.0,3.3,100,0.00,,,0.00,WUHU216PEETBRO,2013-04-09 12:52:00,
2013-04-09 08:57:00,40.2,40.2,30.10,ENE,76,0.0,3.3,100,0.00,,,0.00,WUHU216PEETBRO,2013-04-09 12:57:00,
2013-04-09 09:02:00,39.9,39.9,30.10,ENE,76,0.0,2.6,100,0.00,,,0.00,WUHU216PEETBRO,2013-04-09 13:02:00,
2013-04-09 09:07:00,39.9,39.9,30.10,ENE,76,0.0,2.6,100,0.00,,,0.00,WUHU216PEETBRO,2013-04-09 13:07:00,
2013-04-09 09:12:00,40.0,40.0,30.09,ENE,76,0.0,0.0,100,0.00,,,0.00,WUHU216PEETBRO,2013-04-09 13:12:00,
2013-04-09 09:18:00,39.9,39.9,30.09,ENE,76,0.0,0.0,100,0.00,,,0.00,WUHU216PEETBRO,2013-04-09 13:18:00,
2013-04-09 09:23:00,40.0,40.0,30.09,ENE,76,0.0,0.0,100,0.00,,,0.00,WUHU216PEETBRO,2013-04-09 13:23:00,
2013-04-09 09:28:00,40.0,40.0,30.09,ENE,76,0.0,0.0,100,0.00,,,0.00,WUHU216PEETBRO,2013-04-09 13:28:00,
2013-04-09 09:33:00,39.9,39.9,30.09,ESE,107,0.0,6.2,100,0.00,,,0.00,WUHU216PEETBRO,2013-04-09 13:33:00,
2013-04-09 09:38:00,39.9,39.9,30.09,ENE,70,3.4,6.2,100,0.00,,,0.00,WUHU216PEETBRO,2013-04-09 13:38:00,
2013-04-09 09:43:00,40.2,40.2,30.09,ESE,121,0.0,6.1,100,0.00,,,0.00,WUHU216PEETBRO,2013-04-09 13:43:00,
2013-04-09 09:48:00,40.3,40.3,30.09,SE,145,0.0,5.7,100,0.00,,,0.00,WUHU216PEETBRO,2013-04-09 13:48:00,
2013-04-09 09:53:00,40.3,40.3,30.09,SSW,196,0.0,5.3,100,0.00,,,0.00,WUHU216PEETBRO,2013-04-09 13:53:00,
2013-04-09 09:58:00,40.3,40.3,30.09,SSE,159,3.1,7.9,100,0.00,,,0.00,WUHU216PEETBRO,2013-04-09 13:58:00,
2013-04-09 10:03:00,40.4,40.4,30.09,SSE,166,0.0,7.9,100,0.00,,,0.00,WUHU216PEETBRO,2013-04-09 14:03:00,
2013-04-09 10:08:00,40.6,40.6,30.09,SW,215,5.0,8.3,100,0.00,,,0.00,WUHU216PEETBRO,2013-04-09 14:08:00,
2013-04-09 10:13:00,40.8,40.8,30.09,SSE,155,0.0,8.3,100,0.00,,,0.00,WUHU216PEETBRO,2013-04-09 14:13:00,
2013-04-09 10:18:00,40.7,40.7,30.09,SE,141,5.2,7.1,100,0.00,,,0.00,WUHU216PEETBRO,2013-04-09 14:18:00,
2013-04-09 10:23:00,41.1,41.1,30.09,SE,145,0.0,7.1,100,0.00,,,0.00,WUHU216PEETBRO,2013-04-09 14:23:00,
2013-04-09 10:28:00,41.1,41.1,30.08,SE,138,0.0,7.1,100,0.00,,,0.00,WUHU216PEETBRO,2013-04-09 14:28:00,
2013-04-09 10:33:00,41.1,41.1,30.08,ENE,77,5.2,7.5,100,0.00,,,0.00,WUHU216PEETBRO,2013-04-09 14:33:00,
2013-04-09 10:38:00,41.3,41.3,30.08,SE,143,3.3,7.5,100,0.00,,,0.00,WUHU216PEETBRO,2013-04-09 14:38:00,
2013-04-09 10:43:00,41.5,41.5,30.09,SSE,149,0.0,7.0,100,0.00,,,0.00,WUHU216PEETBRO,2013-04-09 14:43:00,
2013-04-09 10:48:00,41.4,41.4,30.09,East,87,0.0,7.0,100,0.00,,,0.00,WUHU216PEETBRO,2013-04-09 14:48:00,
2013-04-09 10:53:00,41.7,41.7,30.09,SE,143,0.0,7.0,100,0.00,,,0.00,WUHU216PEETBRO,2013-04-09 14:53:00,
2013-04-09 10:58:00,42.0,42.0,30.09,SE,143,0.0,7.0,100,0.00,,,0.00,WUHU216PEETBRO,2013-04-09 14:58:00,
2013-04-09 11:03:00,42.3,42.3,30.08,SE,141,0.0,5.5,100,0.00,,,0.00,WUHU216PEETBRO,2013-04-09 15:03:00,
2013-04-09 11:08:00,42.6,42.6,30.08,South,183,0.0,5.8,100,0.00,,,0.00,WUHU216PEETBRO,2013-04-09 15:08:00,
2013-04-09 11:13:00,42.5,42.5,30.08,SSW,196,5.0,9.7,100,0.00,,,0.00,WUHU216PEETBRO,2013-04-09 15:13:00,
2013-04-09 11:18:00,42.5,42.5,30.09,SSW,207,8.3,10.4,100,0.00,,,0.00,WUHU216PEETBRO,2013-04-09 15:18:00,
2013-04-09 11:23:00,42.7,42.7,30.09,SSE,158,0.0,10.4,100,0.00,,,0.00,WUHU216PEETBRO,2013-04-09 15:23:00,
2013-04-09 11:28:00,43.0,43.0,30.09,SSE,162,5.5,8.6,100,0.00,,,0.00,WUHU216PEETBRO,2013-04-09 15:28:00,
2013-04-09 11:33:00,43.5,43.5,30.09,SSE,153,4.2,8.7,100,0.00,,,0.00,WUHU216PEETBRO,2013-04-09 15:33:00,
2013-04-09 11:38:00,43.9,43.9,30.09,SSE,166,6.1,11.1,100,0.00,,,0.00,WUHU216PEETBRO,2013-04-09 15:38:00,
2013-04-09 11:43:00,44.8,44.3,30.09,WSW,245,5.8,12.2,98,0.00,,,0.00,WUHU216PEETBRO,2013-04-09 15:43:00,
2013-04-09 11:48:00,44.9,44.2,30.08,SSE,165,8.2,12.2,97,0.00,,,0.00,WUHU216PEETBRO,2013-04-09 15:48:00,
2013-04-09 11:53:00,45.1,44.9,30.08,SW,230,3.3,12.2,99,0.00,,,0.00,WUHU216PEETBRO,2013-04-09 15:53:00,
2013-04-09 11:58:00,45.3,44.6,30.08,SSW,193,7.3,9.1,98,0.00,,,0.00,WUHU216PEETBRO,2013-04-09 15:58:00,
2013-04-09 12:03:00,45.1,44.4,30.08,SSE,166,3.3,10.7,97,0.00,,,0.00,WUHU216PEETBRO,2013-04-09 16:03:00,
2013-04-09 12:08:00,45.1,44.4,30.09,South,186,6.6,10.7,98,0.00,,,0.00,WUHU216PEETBRO,2013-04-09 16:08:00,
2013-04-09 12:13:00,45.0,44.0,30.09,SW,225,4.5,9.4,96,0.00,,,0.00,WUHU216PEETBRO,2013-04-09 16:13:00,
2013-04-09 12:18:00,44.8,43.9,30.09,West,271,6.1,11.2,97,0.00,,,0.00,WUHU216PEETBRO,2013-04-09 16:18:00,
2013-04-09 12:23:00,44.4,43.4,30.10,SSE,165,6.0,11.2,97,0.00,,,0.00,WUHU216PEETBRO,2013-04-09 16:23:00,
2013-04-09 12:28:00,44.0,43.2,30.09,South,170,5.7,10.9,97,0.00,,,0.00,WUHU216PEETBRO,2013-04-09 16:28:00,
2013-04-09 12:33:00,43.8,43.2,30.06,South,175,0.0,10.9,98,0.00,,,0.00,WUHU216PEETBRO,2013-04-09 16:33:00,
2013-04-09 12:38:00,43.4,43.2,30.05,East,87,3.0,8.6,99,0.01,,,0.01,WUHU216PEETBRO,2013-04-09 16:38:00,
2013-04-09 12:43:00,42.9,42.9,30.04,ESE,104,3.5,9.4,100,0.02,,,0.02,WUHU216PEETBRO,2013-04-09 16:43:00,
2013-04-09 12:48:00,42.5,42.5,30.03,ENE,73,5.6,9.4,100,0.04,,,0.04,WUHU216PEETBRO,2013-04-09 16:48:00,
2013-04-09 12:53:00,42.5,42.5,30.03,NE,35,0.0,9.2,100,0.04,,,0.04,WUHU216PEETBRO,2013-04-09 16:53:00,
2013-04-09 12:58:00,42.6,42.6,30.02,ESE,105,0.0,7.8,100,0.04,,,0.04,WUHU216PEETBRO,2013-04-09 16:58:00,
2013-04-09 13:03:00,42.7,42.7,30.03,ESE,112,0.0,8.0,100,0.05,,,0.05,WUHU216PEETBRO,2013-04-09 17:03:00,
2013-04-09 13:08:00,42.9,42.9,30.04,SSE,156,0.0,8.0,100,0.05,,,0.05,WUHU216PEETBRO,2013-04-09 17:08:00,
2013-04-09 13:13:00,42.9,42.9,30.04,ESE,115,0.0,7.0,100,0.05,,,0.05,WUHU216PEETBRO,2013-04-09 17:13:00,
2013-04-09 13:18:00,42.7,42.7,30.02,East,98,0.0,7.6,100,0.05,,,0.05,WUHU216PEETBRO,2013-04-09 17:18:00,
2013-04-09 13:23:00,42.5,42.5,30.02,SSE,159,3.4,7.6,100,0.05,,,0.05,WUHU216PEETBRO,2013-04-09 17:23:00,
2013-04-09 13:28:00,42.6,42.6,30.02,East,81,0.0,7.5,100,0.05,,,0.05,WUHU216PEETBRO,2013-04-09 17:28:00,
2013-04-09 13:33:00,42.6,42.6,30.03,SE,125,0.0,7.5,100,0.05,,,0.05,WUHU216PEETBRO,2013-04-09 17:33:00,
2013-04-09 13:38:00,42.5,42.5,30.05,South,180,0.0,4.3,100,0.07,,,0.08,WUHU216PEETBRO,2013-04-09 17:38:00,
2013-04-09 13:43:00,42.6,42.6,30.04,South,180,0.0,3.5,100,0.13,,,0.15,WUHU216PEETBRO,2013-04-09 17:43:00,
2013-04-09 13:48:00,42.6,42.6,30.04,South,180,0.0,0.0,100,0.12,,,0.16,WUHU216PEETBRO,2013-04-09 17:48:00,
2013-04-09 13:53:00,42.5,42.5,30.03,South,180,0.0,0.0,100,0.14,,,0.18,WUHU216PEETBRO,2013-04-09 17:53:00,
2013-04-09 13:58:00,42.4,42.4,30.03,East,98,0.0,3.4,100,0.14,,,0.19,WUHU216PEETBRO,2013-04-09 17:58:00,
2013-04-09 14:03:00,42.4,42.4,30.03,East,98,0.0,3.4,100,0.15,,,0.20,WUHU216PEETBRO,2013-04-09 18:03:00,
2013-04-09 14:08:00,42.4,42.4,30.02,East,98,0.0,0.0,100,0.15,,,0.20,WUHU216PEETBRO,2013-04-09 18:08:00,
2013-04-09 14:13:00,42.3,42.3,30.01,East,98,0.0,0.0,100,0.15,,,0.20,WUHU216PEETBRO,2013-04-09 18:13:00,
2013-04-09 14:18:00,42.2,42.2,30.00,East,81,0.0,5.0,100,0.15,,,0.20,WUHU216PEETBRO,2013-04-09 18:18:00,
2013-04-09 14:23:00,42.2,42.2,30.00,East,80,5.7,5.9,100,0.16,,,0.21,WUHU216PEETBRO,2013-04-09 18:23:00,
2013-04-09 14:28:00,42.2,42.2,29.99,ESE,105,3.4,6.0,100,0.16,,,0.21,WUHU216PEETBRO,2013-04-09 18:28:00,
2013-04-09 14:33:00,42.4,42.4,29.98,ESE,111,6.5,6.5,100,0.16,,,0.21,WUHU216PEETBRO,2013-04-09 18:33:00,
2013-04-09 14:38:00,42.6,42.6,29.98,ENE,69,0.0,8.3,100,0.13,,,0.21,WUHU216PEETBRO,2013-04-09 18:38:00,
2013-04-09 14:43:00,42.8,42.8,29.97,East,95,4.3,8.3,100,0.06,,,0.21,WUHU216PEETBRO,2013-04-09 18:43:00,
2013-04-09 14:48:00,42.8,42.8,29.97,East,100,0.0,8.0,100,0.05,,,0.21,WUHU216PEETBRO,2013-04-09 18:48:00,
2013-04-09 14:53:00,43.1,43.1,29.96,East,93,4.5,8.0,100,0.03,,,0.21,WUHU216PEETBRO,2013-04-09 18:53:00,
2013-04-09 14:58:00,43.4,43.4,29.96,East,98,0.0,7.7,100,0.02,,,0.21,WUHU216PEETBRO,2013-04-09 18:58:00,
2013-04-09 15:03:00,43.2,43.2,29.96,East,98,0.0,3.5,100,0.01,,,0.21,WUHU216PEETBRO,2013-04-09 19:03:00,
2013-04-09 15:08:00,43.2,43.2,29.96,SE,128,0.0,3.4,100,0.01,,,0.21,WUHU216PEETBRO,2013-04-09 19:08:00,
2013-04-09 15:13:00,43.5,43.5,29.95,East,81,0.0,4.6,100,0.01,,,0.21,WUHU216PEETBRO,2013-04-09 19:13:00,
2013-04-09 15:18:00,43.5,43.5,29.96,East,81,0.0,4.6,100,0.01,,,0.21,WUHU216PEETBRO,2013-04-09 19:18:00,
2013-04-09 15:23:00,43.4,43.4,29.96,East,81,3.5,3.5,100,0.00,,,0.21,WUHU216PEETBRO,2013-04-09 19:23:00,
2013-04-09 15:28:00,43.5,43.5,29.95,East,83,3.4,3.5,100,0.00,,,0.21,WUHU216PEETBRO,2013-04-09 19:28:00,
2013-04-09 15:33:00,43.7,43.7,29.95,ENE,69,0.0,4.5,100,0.00,,,0.21,WUHU216PEETBRO,2013-04-09 19:33:00,
2013-04-09 15:38:00,43.9,43.9,29.96,ENE,69,0.0,4.5,100,0.00,,,0.21,WUHU216PEETBRO,2013-04-09 19:38:00,
2013-04-09 15:43:00,44.1,44.1,29.96,ENE,69,0.0,0.0,100,0.00,,,0.21,WUHU216PEETBRO,2013-04-09 19:43:00,
2013-04-09 15:48:00,44.2,44.2,29.95,ENE,69,0.0,3.3,100,0.00,,,0.21,WUHU216PEETBRO,2013-04-09 19:48:00,
2013-04-09 15:53:00,44.3,44.3,29.95,NE,55,0.0,3.3,100,0.00,,,0.21,WUHU216PEETBRO,2013-04-09 19:53:00,
2013-04-09 15:58:00,44.3,44.3,29.95,NNE,28,0.0,5.5,100,0.00,,,0.21,WUHU216PEETBRO,2013-04-09 19:58:00,
2013-04-09 16:03:00,44.1,44.1,29.94,NE,43,4.5,7.1,100,0.00,,,0.21,WUHU216PEETBRO,2013-04-09 20:03:00,
2013-04-09 16:09:00,44.0,44.0,29.94,ENE,59,0.0,8.0,100,0.00,,,0.21,WUHU216PEETBRO,2013-04-09 20:09:00,
2013-04-09 16:14:00,44.0,44.0,29.94,ENE,62,0.0,8.0,100,0.00,,,0.21,WUHU216PEETBRO,2013-04-09 20:14:00,
2013-04-09 16:19:00,44.0,44.0,29.93,NE,47,0.0,6.9,100,0.00,,,0.21,WUHU216PEETBRO,2013-04-09 20:19:00,
2013-04-09 16:24:00,44.0,44.0,29.93,NNE,28,3.4,7.5,100,0.00,,,0.21,WUHU216PEETBRO,2013-04-09 20:24:00,
2013-04-09 16:29:00,44.1,44.1,29.93,North,359,0.0,7.5,100,0.00,,,0.21,WUHU216PEETBRO,2013-04-09 20:29:00,
2013-04-09 16:34:00,44.2,44.2,29.93,ENE,69,2.6,5.4,100,0.00,,,0.21,WUHU216PEETBRO,2013-04-09 20:34:00,
2013-04-09 16:39:00,44.1,44.1,29.94,North,11,0.0,8.2,100,0.00,,,0.21,WUHU216PEETBRO,2013-04-09 20:39:00,
2013-04-09 16:44:00,44.3,44.3,29.96,NNE,14,0.0,8.2,100,0.00,,,0.21,WUHU216PEETBRO,2013-04-09 20:44:00,
2013-04-09 16:49:00,44.3,44.3,29.94,North,9,0.0,7.9,100,0.00,,,0.21,WUHU216PEETBRO,2013-04-09 20:49:00,
2013-04-09 16:54:00,44.2,44.2,29.94,NNE,16,0.0,5.6,100,0.00,,,0.21,WUHU216PEETBRO,2013-04-09 20:54:00,
2013-04-09 16:59:00,44.2,44.2,29.94,NNE,26,0.0,8.5,100,0.00,,,0.21,WUHU216PEETBRO,2013-04-09 20:59:00,
2013-04-09 17:04:00,44.2,44.2,29.94,NE,56,0.0,8.5,100,0.00,,,0.21,WUHU216PEETBRO,2013-04-09 21:04:00,
2013-04-09 17:10:00,44.1,44.1,29.93,NNE,32,0.0,7.6,100,0.00,,,0.21,WUHU216PEETBRO,2013-04-09 21:10:00,
2013-04-09 17:15:00,44.4,44.4,29.94,NNE,14,0.0,7.6,100,0.00,,,0.21,WUHU216PEETBRO,2013-04-09 21:15:00,
2013-04-09 17:20:00,44.2,44.2,29.93,ENE,77,4.9,7.0,100,0.00,,,0.21,WUHU216PEETBRO,2013-04-09 21:20:00,
2013-04-09 17:25:00,44.4,44.4,29.93,ENE,63,0.0,7.0,100,0.00,,,0.21,WUHU216PEETBRO,2013-04-09 21:25:00,
2013-04-09 17:30:00,44.7,44.7,29.93,ENE,59,0.0,6.8,100,0.00,,,0.21,WUHU216PEETBRO,2013-04-09 21:30:00,
2013-04-09 17:35:00,44.8,44.8,29.92,ENE,60,0.0,6.4,100,0.01,,,0.22,WUHU216PEETBRO,2013-04-09 21:35:00,
2013-04-09 17:40:00,44.9,44.9,29.92,ENE,60,0.0,4.6,100,0.01,,,0.22,WUHU216PEETBRO,2013-04-09 21:40:00,
2013-04-09 17:45:00,44.9,44.9,29.92,ENE,66,0.0,4.3,100,0.02,,,0.23,WUHU216PEETBRO,2013-04-09 21:45:00,
2013-04-09 17:50:00,45.0,45.0,29.91,ENE,66,0.0,4.3,100,0.02,,,0.23,WUHU216PEETBRO,2013-04-09 21:50:00,
2013-04-09 17:55:00,45.1,45.1,29.91,ENE,66,0.0,4.2,100,0.02,,,0.23,WUHU216PEETBRO,2013-04-09 21:55:00,
2013-04-09 18:00:00,45.2,45.2,29.91,ENE,66,0.0,4.2,100,0.03,,,0.24,WUHU216PEETBRO,2013-04-09 22:00:00,
2013-04-09 18:05:00,45.1,45.1,29.91,ENE,66,0.0,0.0,100,0.03,,,0.24,WUHU216PEETBRO,2013-04-09 22:05:00,
2013-04-09 18:10:00,45.1,45.1,29.91,ENE,66,0.0,0.0,100,0.03,,,0.24,WUHU216PEETBRO,2013-04-09 22:10:00,
2013-04-09 18:15:00,45.2,45.2,29.91,ENE,66,0.0,0.0,100,0.03,,,0.24,WUHU216PEETBRO,2013-04-09 22:15:00,
2013-04-09 18:20:00,44.9,44.9,29.90,ESE,103,0.0,7.7,100,0.04,,,0.25,WUHU216PEETBRO,2013-04-09 22:20:00,
2013-04-09 18:25:00,45.0,45.0,29.90,ESE,103,0.0,7.7,100,0.06,,,0.27,WUHU216PEETBRO,2013-04-09 22:25:00,
2013-04-09 18:30:00,45.0,45.0,29.90,ESE,103,0.0,0.0,100,0.06,,,0.27,WUHU216PEETBRO,2013-04-09 22:30:00,
2013-04-09 18:35:00,45.0,45.0,29.91,ESE,103,0.0,0.0,100,0.05,,,0.27,WUHU216PEETBRO,2013-04-09 22:35:00,
2013-04-09 18:40:00,45.0,45.0,29.91,ESE,103,0.0,0.0,100,0.05,,,0.27,WUHU216PEETBRO,2013-04-09 22:40:00,
2013-04-09 18:45:00,45.0,45.0,29.91,ESE,103,0.0,0.0,100,0.04,,,0.27,WUHU216PEETBRO,2013-04-09 22:45:00,
2013-04-09 18:50:00,45.1,45.1,29.91,ESE,103,0.0,0.0,100,0.04,,,0.27,WUHU216PEETBRO,2013-04-09 22:50:00,
2013-04-09 18:55:00,45.0,45.0,29.92,ESE,103,0.0,0.0,100,0.06,,,0.29,WUHU216PEETBRO,2013-04-09 22:55:00,
2013-04-09 19:00:00,45.1,45.1,29.93,ESE,103,0.0,0.0,100,0.06,,,0.30,WUHU216PEETBRO,2013-04-09 23:00:00,
2013-04-09 19:05:00,45.0,45.0,29.94,ESE,103,0.0,0.0,100,0.06,,,0.30,WUHU216PEETBRO,2013-04-09 23:05:00,
2013-04-09 19:10:00,45.0,45.0,29.95,North,4,5.0,5.0,100,0.06,,,0.30,WUHU216PEETBRO,2013-04-09 23:10:00,
2013-04-09 19:15:00,45.1,45.1,29.96,North,0,0.0,6.9,100,0.06,,,0.30,WUHU216PEETBRO,2013-04-09 23:15:00,
2013-04-09 19:20:00,45.2,45.2,29.93,North,0,0.0,6.9,100,0.06,,,0.31,WUHU216PEETBRO,2013-04-09 23:20:00,
2013-04-09 19:25:00,45.0,45.0,29.91,North,0,0.0,0.0,100,0.07,,,0.34,WUHU216PEETBRO,2013-04-09 23:25:00,
2013-04-09 19:30:00,45.1,45.1,29.92,North,0,0.0,0.0,100,0.08,,,0.35,WUHU216PEETBRO,2013-04-09 23:30:00,
2013-04-09 19:35:00,45.2,45.2,29.91,North,0,0.0,0.0,100,0.09,,,0.36,WUHU216PEETBRO,2013-04-09 23:35:00,
2013-04-09 19:40:00,45.2,45.2,29.93,North,0,0.0,0.0,100,0.09,,,0.36,WUHU216PEETBRO,2013-04-09 23:40:00,
2013-04-09 19:45:00,45.3,45.3,29.92,North,0,0.0,0.0,100,0.09,,,0.36,WUHU216PEETBRO,2013-04-09 23:45:00,
2013-04-09 19:50:00,45.3,45.3,29.91,North,0,0.0,0.0,100,0.09,,,0.36,WUHU216PEETBRO,2013-04-09 23:50:00,
2013-04-09 19:55:00,45.3,45.3,29.92,North,0,0.0,0.0,100,0.07,,,0.36,WUHU216PEETBRO,2013-04-09 23:55:00,
2013-04-09 20:00:00,45.5,45.5,29.92,North,0,0.0,0.0,100,0.07,,,0.37,WUHU216PEETBRO,2013-04-10 00:00:00,
2013-04-09 20:05:00,45.5,45.5,29.91,North,0,0.0,0.0,100,0.08,,,0.38,WUHU216PEETBRO,2013-04-10 00:05:00,
2013-04-09 20:10:00,45.6,45.6,29.91,North,0,0.0,0.0,100,0.08,,,0.38,WUHU216PEETBRO,2013-04-10 00:10:00,
2013-04-09 20:15:00,45.6,45.6,29.90,North,0,0.0,0.0,100,0.08,,,0.38,WUHU216PEETBRO,2013-04-10 00:15:00,
2013-04-09 20:20:00,45.7,45.7,29.91,North,0,0.0,0.0,100,0.07,,,0.38,WUHU216PEETBRO,2013-04-10 00:20:00,
2013-04-09 20:25:00,45.7,45.7,29.91,North,0,0.0,0.0,100,0.04,,,0.38,WUHU216PEETBRO,2013-04-10 00:25:00,
2013-04-09 20:30:00,45.8,45.8,29.91,North,0,0.0,0.0,100,0.04,,,0.39,WUHU216PEETBRO,2013-04-10 00:30:00,
2013-04-09 20:35:00,45.8,45.8,29.92,North,0,0.0,0.0,100,0.03,,,0.39,WUHU216PEETBRO,2013-04-10 00:35:00,
2013-04-09 20:40:00,45.7,45.7,29.93,North,0,0.0,0.0,100,0.03,,,0.39,WUHU216PEETBRO,2013-04-10 00:40:00,
2013-04-09 20:45:00,45.6,45.6,29.94,North,0,0.0,0.0,100,0.03,,,0.39,WUHU216PEETBRO,2013-04-10 00:45:00,
2013-04-09 20:50:00,45.6,45.6,29.94,North,0,0.0,0.0,100,0.05,,,0.41,WUHU216PEETBRO,2013-04-10 00:50:00,
2013-04-09 20:55:00,45.6,45.6,29.94,North,0,0.0,0.0,100,0.07,,,0.43,WUHU216PEETBRO,2013-04-10 00:55:00,
2013-04-09 21:00:00,45.7,45.7,29.96,North,0,0.0,0.0,100,0.11,,,0.48,WUHU216PEETBRO,2013-04-10 01:00:00,
2013-04-09 21:05:00,45.7,45.7,29.95,North,0,0.0,0.0,100,0.12,,,0.50,WUHU216PEETBRO,2013-04-10 01:05:00,
2013-04-09 21:10:00,45.8,45.8,29.96,North,0,0.0,0.0,100,0.12,,,0.50,WUHU216PEETBRO,2013-04-10 01:10:00,
2013-04-09 21:15:00,45.8,45.8,29.94,NNE,32,4.3,6.1,100,0.12,,,0.50,WUHU216PEETBRO,2013-04-10 01:15:00,
2013-04-09 21:20:00,45.5,45.5,29.96,NNW,333,7.1,14.4,100,0.12,,,0.50,WUHU216PEETBRO,2013-04-10 01:20:00,
2013-04-09 21:25:00,44.9,44.9,29.96,North,1,9.5,16.5,100,0.12,,,0.50,WUHU216PEETBRO,2013-04-10 01:25:00,
2013-04-09 21:30:00,44.9,44.9,29.98,North,9,0.0,16.5,100,0.11,,,0.50,WUHU216PEETBRO,2013-04-10 01:30:00,
2013-04-09 21:35:00,44.4,44.4,29.99,North,11,5.9,14.5,100,0.11,,,0.50,WUHU216PEETBRO,2013-04-10 01:35:00,
2013-04-09 21:40:00,44.3,44.3,30.00,NNE,15,0.0,10.7,100,0.11,,,0.50,WUHU216PEETBRO,2013-04-10 01:40:00,
2013-04-09 21:45:00,43.7,43.7,29.97,North,11,4.3,11.1,100,0.11,,,0.50,WUHU216PEETBRO,2013-04-10 01:45:00,
2013-04-09 21:50:00,43.2,43.2,30.00,NNW,343,0.0,11.1,100,0.10,,,0.51,WUHU216PEETBRO,2013-04-10 01:50:00,
2013-04-09 21:55:00,43.0,43.0,29.99,North,359,0.0,9.9,100,0.08,,,0.51,WUHU216PEETBRO,2013-04-10 01:55:00,
2013-04-09 22:00:00,42.6,42.6,29.98,North,1,5.8,7.3,100,0.03,,,0.51,WUHU216PEETBRO,2013-04-10 02:00:00,
2013-04-09 22:05:00,42.4,42.4,29.98,NNE,28,0.0,7.3,100,0.01,,,0.51,WUHU216PEETBRO,2013-04-10 02:05:00,
2013-04-09 22:10:00,41.9,41.9,29.98,NNE,26,8.3,9.1,100,0.02,,,0.52,WUHU216PEETBRO,2013-04-10 02:10:00,
2013-04-09 22:15:00,41.6,41.6,29.97,NNE,29,0.0,10.9,100,0.04,,,0.54,WUHU216PEETBRO,2013-04-10 02:15:00,
2013-04-09 22:20:00,41.2,41.2,30.00,NNE,21,0.0,10.9,100,0.06,,,0.56,WUHU216PEETBRO,2013-04-10 02:20:00,
2013-04-09 22:25:00,40.7,40.7,30.00,North,7,7.8,12.6,100,0.08,,,0.58,WUHU216PEETBRO,2013-04-10 02:25:00,
2013-04-09 22:30:00,40.5,40.5,30.00,NNE,22,0.0,12.6,100,0.11,,,0.61,WUHU216PEETBRO,2013-04-10 02:30:00,
2013-04-09 22:35:00,40.4,40.4,29.99,North,7,0.0,11.7,100,0.13,,,0.63,WUHU216PEETBRO,2013-04-10 02:35:00,
2013-04-09 22:40:00,40.0,40.0,29.99,NNE,23,6.5,12.1,100,0.13,,,0.63,WUHU216PEETBRO,2013-04-10 02:40:00,
2013-04-09 22:45:00,40.1,40.1,29.98,North,358,5.5,12.1,100,0.14,,,0.64,WUHU216PEETBRO,2013-04-10 02:45:00,
2013-04-09 22:50:00,40.0,40.0,29.98,NNE,25,4.3,13.4,100,0.13,,,0.64,WUHU216PEETBRO,2013-04-10 02:50:00,
2013-04-09 22:55:00,40.0,40.0,29.98,NNE,26,0.0,13.4,100,0.13,,,0.64,WUHU216PEETBRO,2013-04-10 02:55:00,
2013-04-09 23:00:00,39.9,39.9,29.98,NE,36,4.5,11.9,100,0.14,,,0.65,WUHU216PEETBRO,2013-04-10 03:00:00,
2013-04-09 23:05:00,40.0,40.0,29.99,North,7,0.0,10.7,100,0.14,,,0.65,WUHU216PEETBRO,2013-04-10 03:05:00,
2013-04-09 23:10:00,40.0,40.0,29.98,North,8,7.0,10.7,100,0.12,,,0.65,WUHU216PEETBRO,2013-04-10 03:10:00,
2013-04-09 23:15:00,40.0,40.0,29.98,NE,38,0.0,10.4,100,0.15,,,0.69,WUHU216PEETBRO,2013-04-10 03:15:00,
2013-04-09 23:20:00,40.0,40.0,29.99,North,1,0.0,10.4,100,0.15,,,0.71,WUHU216PEETBRO,2013-04-10 03:20:00,
2013-04-09 23:25:00,40.0,40.0,29.98,NNE,26,0.0,8.0,100,0.14,,,0.72,WUHU216PEETBRO,2013-04-10 03:25:00,
2013-04-09 23:30:00,40.0,40.0,29.98,NNE,12,0.0,7.3,100,0.11,,,0.72,WUHU216PEETBRO,2013-04-10 03:30:00,
2013-04-09 23:35:00,40.0,40.0,29.98,ENE,63,0.0,11.1,100,0.09,,,0.72,WUHU216PEETBRO,2013-04-10 03:35:00,
2013-04-09 23:40:00,39.9,39.9,30.00,NNE,31,0.0,11.1,100,0.09,,,0.72,WUHU216PEETBRO,2013-04-10 03:40:00,
2013-04-09 23:45:00,39.8,39.8,30.00,NNE,25,0.0,11.8,100,0.08,,,0.72,WUHU216PEETBRO,2013-04-10 03:45:00,
2013-04-09 23:50:00,39.8,39.8,29.99,North,5,0.0,11.8,100,0.08,,,0.72,WUHU216PEETBRO,2013-04-10 03:50:00,
2013-04-09 23:55:00,39.8,39.8,29.99,ENE,70,0.0,12.4,100,0.08,,,0.72,WUHU216PEETBRO,2013-04-10 03:55:00,